Time;durP1;ratioP1;P1;durP2;ratioP2;P2;SDS_P1;SDS_P2;PMS_P1;PMS_P2;Temp;Humidity;BMP_temperature;BMP_pressure;BME280_temperature;BME280_humidity;BME280_pressure;Samples;Min_cycle;Max_cycle;Signal;HPM_P1;HPM_P2
2022/08/18 00:01:39;;;;;;;8.00;5.47;;;22.10;99.90;;;;;;5073799;28;20227;-77
2022/08/18 00:04:07;;;;;;;8.98;5.10;;;21.80;99.90;;;;;;5073753;28;20556;-76
2022/08/18 00:06:34;;;;;;;10.32;5.97;;;21.60;99.90;;;;;;5073708;28;20721;-76
2022/08/18 00:09:04;;;;;;;7.00;5.47;;;21.40;99.90;;;;;;5073893;28;20201;-77
2022/08/18 00:11:34;;;;;;;9.40;5.78;;;21.40;99.90;;;;;;5073706;28;20246;-78
2022/08/18 00:14:01;;;;;;;7.57;5.13;;;21.30;99.90;;;;;;5073849;28;20189;-78
2022/08/18 00:16:28;;;;;;;9.88;6.13;;;21.20;99.90;;;;;;5073430;28;20251;-78
2022/08/18 00:18:54;;;;;;;12.45;6.40;;;21.20;99.90;;;;;;5073522;28;20648;-77
2022/08/18 00:21:22;;;;;;;8.70;6.80;;;21.10;99.90;;;;;;5073606;28;20243;-78
2022/08/18 00:23:49;;;;;;;10.00;6.65;;;20.90;99.90;;;;;;5073522;28;20254;-77
2022/08/18 00:26:16;;;;;;;11.05;7.10;;;20.70;99.90;;;;;;5073439;28;20538;-78
2022/08/18 00:28:42;;;;;;;10.85;7.43;;;20.50;99.90;;;;;;5073249;28;20664;-78
2022/08/18 00:31:09;;;;;;;8.38;7.07;;;20.20;99.90;;;;;;5073603;28;20246;-78
2022/08/18 00:33:36;;;;;;;11.02;7.47;;;20.10;99.90;;;;;;5073388;28;20192;-78
2022/08/18 00:36:02;;;;;;;10.55;7.78;;;20.00;99.90;;;;;;5073363;28;20250;-78
2022/08/18 00:38:30;;;;;;;9.63;8.60;;;19.90;99.90;;;;;;5072316;28;20271;-78
2022/08/18 00:40:57;;;;;;;10.35;8.30;;;19.80;99.90;;;;;;5073217;28;20205;-78
2022/08/18 00:43:31;;;;;;;11.32;7.50;;;19.60;99.90;;;;;;5072878;28;20279;-78
2022/08/18 00:45:59;;;;;;;10.63;9.15;;;19.50;99.90;;;;;;5073282;28;20201;-77
2022/08/18 00:48:26;;;;;;;10.60;9.40;;;19.30;99.90;;;;;;5073235;28;20331;-77
2022/08/18 00:50:56;;;;;;;11.30;10.23;;;19.10;99.90;;;;;;5073162;28;20197;-77
2022/08/18 00:53:29;;;;;;;12.07;10.82;;;19.00;99.90;;;;;;5073114;28;20197;-77
2022/08/18 00:56:02;;;;;;;11.73;10.57;;;18.80;99.90;;;;;;5072969;28;20199;-76
2022/08/18 00:58:33;;;;;;;12.23;11.07;;;18.80;99.90;;;;;;5072865;28;20642;-76
2022/08/18 01:01:02;;;;;;;13.23;11.95;;;18.60;99.90;;;;;;5073204;28;20193;-76
2022/08/18 01:03:32;;;;;;;14.30;12.80;;;18.40;99.90;;;;;;5072864;28;20615;-76
2022/08/18 01:06:03;;;;;;;16.70;12.98;;;18.40;99.90;;;;;;5073207;28;20208;-75
2022/08/18 01:08:30;;;;;;;16.73;13.13;;;18.30;99.90;;;;;;5072772;28;20851;-77
2022/08/18 01:11:01;;;;;;;15.20;13.68;;;18.20;99.90;;;;;;5073007;28;20209;-76
2022/08/18 01:13:31;;;;;;;15.70;14.23;;;18.10;99.90;;;;;;5072938;28;20224;-76
2022/08/18 01:21:49;;;;;;;14.35;12.90;;;18.00;99.90;;;;;;5072893;28;20204;-76
2022/08/18 01:24:19;;;;;;;15.98;14.27;;;18.00;99.90;;;;;;5072815;28;20199;-76
2022/08/18 01:26:48;;;;;;;17.65;15.23;;;18.00;99.90;;;;;;5072707;28;20197;-75
2022/08/18 01:29:17;;;;;;;16.85;14.93;;;18.00;99.90;;;;;;5072645;28;20660;-75
2022/08/18 01:31:53;;;;;;;17.65;16.13;;;18.00;99.90;;;;;;5072874;28;20201;-76
2022/08/18 01:34:23;;;;;;;18.27;16.52;;;18.00;99.90;;;;;;5072959;28;20236;-76
2022/08/18 01:36:51;;;;;;;16.92;15.35;;;18.00;99.90;;;;;;5072711;28;20284;-76
2022/08/18 01:39:19;;;;;;;16.08;14.60;;;18.00;99.90;;;;;;5072613;28;20197;-76
2022/08/18 01:41:46;;;;;;;18.58;16.58;;;18.00;99.90;;;;;;5072454;28;20205;-76
2022/08/18 01:44:12;;;;;;;17.38;15.60;;;18.00;99.90;;;;;;5072345;28;20237;-76
2022/08/18 01:46:41;;;;;;;16.73;15.10;;;17.90;99.90;;;;;;5072631;28;20552;-76
2022/08/18 01:49:10;;;;;;;17.75;14.80;;;17.90;99.90;;;;;;5072424;28;20598;-76
2022/08/18 01:51:40;;;;;;;15.52;13.82;;;17.90;99.90;;;;;;5076010;28;20250;-76
2022/08/18 01:54:07;;;;;;;17.00;15.40;;;17.90;99.90;;;;;;5076374;28;20201;-76
2022/08/18 01:56:35;;;;;;;17.20;15.40;;;17.80;99.90;;;;;;5076498;28;20197;-76
2022/08/18 01:59:02;;;;;;;17.60;16.00;;;17.70;99.90;;;;;;5076327;28;20236;-76
2022/08/18 02:01:29;;;;;;;17.15;15.48;;;17.70;99.90;;;;;;5076285;28;20246;-76
2022/08/18 02:03:59;;;;;;;17.23;15.63;;;17.70;99.90;;;;;;5076131;28;20251;-76
2022/08/18 02:06:26;;;;;;;18.23;16.40;;;17.70;99.90;;;;;;5076108;28;20227;-76
2022/08/18 02:08:53;;;;;;;16.25;14.75;;;17.60;99.90;;;;;;5075933;28;20656;-76
2022/08/18 02:11:20;;;;;;;16.55;15.15;;;17.60;99.90;;;;;;5076139;28;20196;-76
2022/08/18 02:13:48;;;;;;;17.73;16.02;;;17.70;99.90;;;;;;5075963;28;20205;-76
2022/08/18 02:16:15;;;;;;;17.67;15.90;;;17.80;99.90;;;;;;5075873;28;20204;-76
2022/08/18 02:18:42;;;;;;;16.23;14.75;;;17.80;99.90;;;;;;5075908;28;20224;-76
2022/08/18 02:21:12;;;;;;;15.68;14.13;;;17.90;99.90;;;;;;5075813;28;20247;-76
2022/08/18 02:23:40;;;;;;;17.23;15.70;;;18.00;99.90;;;;;;5076174;28;20266;-76
2022/08/18 02:26:09;;;;;;;17.63;15.93;;;18.00;99.90;;;;;;5075876;28;20254;-76
2022/08/18 02:28:36;;;;;;;16.38;14.55;;;18.00;99.90;;;;;;5075652;28;20726;-76
2022/08/18 02:31:09;;;;;;;16.58;14.95;;;17.80;99.90;;;;;;5075709;28;20196;-76
2022/08/18 02:33:36;;;;;;;16.63;15.05;;;17.90;99.90;;;;;;5075572;28;20197;-76
2022/08/18 02:36:05;;;;;;;16.88;15.18;;;17.80;99.90;;;;;;5075497;28;20556;-76
2022/08/18 02:38:32;;;;;;;18.42;16.70;;;17.80;99.90;;;;;;5075620;28;20315;-76
2022/08/18 02:41:01;;;;;;;17.42;15.63;;;17.70;99.90;;;;;;5075354;28;20658;-76
2022/08/18 02:43:29;;;;;;;17.85;16.10;;;17.70;99.90;;;;;;5075183;28;20232;-76
2022/08/18 02:45:57;;;;;;;19.85;17.75;;;17.60;99.90;;;;;;5075326;28;20197;-76
2022/08/18 02:48:28;;;;;;;19.20;17.20;;;17.60;99.90;;;;;;5075265;28;20197;-76
2022/08/18 02:51:00;;;;;;;18.30;16.40;;;17.60;99.90;;;;;;5075670;28;20207;-76
2022/08/18 02:53:27;;;;;;;20.02;17.77;;;17.50;99.90;;;;;;5075350;28;20197;-76
2022/08/18 02:55:54;;;;;;;19.42;17.60;;;17.60;99.90;;;;;;5075250;28;20197;-76
2022/08/18 02:58:21;;;;;;;19.38;17.60;;;17.70;99.90;;;;;;5075024;28;20274;-76
2022/08/18 03:00:48;;;;;;;19.08;17.27;;;17.70;99.90;;;;;;5074811;28;20193;-76
2022/08/18 03:03:14;;;;;;;19.05;17.25;;;17.70;99.90;;;;;;5074479;28;20193;-77
2022/08/18 03:05:42;;;;;;;18.73;16.75;;;17.80;99.90;;;;;;5075188;28;20193;-76
2022/08/18 03:08:09;;;;;;;18.48;16.65;;;17.80;99.90;;;;;;5075008;28;20205;-76
2022/08/18 03:10:36;;;;;;;18.67;16.80;;;17.80;99.90;;;;;;5074969;28;20262;-76
2022/08/18 03:13:02;;;;;;;18.65;16.88;;;17.80;99.90;;;;;;5074723;28;20201;-75
2022/08/18 03:15:29;;;;;;;19.33;17.38;;;17.70;99.90;;;;;;5074758;28;20368;-76
2022/08/18 03:17:56;;;;;;;19.02;17.20;;;17.80;99.90;;;;;;5074942;28;20231;-76
2022/08/18 03:20:23;;;;;;;23.63;18.20;;;17.70;99.90;;;;;;5074820;28;20291;-76
2022/08/18 03:22:51;;;;;;;17.75;16.05;;;17.60;99.90;;;;;;5074748;28;20223;-76
2022/08/18 03:25:18;;;;;;;20.27;17.95;;;17.60;99.90;;;;;;5074499;28;20201;-76
2022/08/18 03:27:44;;;;;;;19.45;17.63;;;17.50;99.90;;;;;;5074463;28;20652;-76
2022/08/18 03:30:11;;;;;;;18.70;17.05;;;17.40;99.90;;;;;;5074416;28;20255;-75
2022/08/18 03:32:38;;;;;;;19.08;16.92;;;17.40;99.90;;;;;;5074593;28;20322;-76
2022/08/18 03:35:06;;;;;;;19.55;16.55;;;17.50;99.90;;;;;;5074471;28;20196;-76
2022/08/18 03:37:32;;;;;;;18.10;15.85;;;17.50;99.90;;;;;;5074324;28;20274;-76
2022/08/18 03:40:00;;;;;;;17.80;16.02;;;17.50;99.90;;;;;;5074347;28;20319;-76
2022/08/18 03:42:27;;;;;;;17.42;15.63;;;17.50;99.90;;;;;;5074008;28;20468;-76
2022/08/18 03:44:53;;;;;;;18.58;16.70;;;17.60;99.90;;;;;;5074414;28;20213;-76
2022/08/18 03:47:20;;;;;;;17.10;15.50;;;17.60;99.90;;;;;;5074302;28;20209;-76
2022/08/18 03:49:47;;;;;;;18.83;15.90;;;17.60;99.90;;;;;;5074050;28;20542;-76
2022/08/18 03:52:14;;;;;;;17.77;15.55;;;17.60;99.90;;;;;;5073976;28;20197;-76
2022/08/18 03:54:41;;;;;;;16.02;14.52;;;17.60;99.90;;;;;;5074007;28;20205;-76
2022/08/18 03:57:10;;;;;;;16.92;15.20;;;17.60;99.90;;;;;;5073869;28;20192;-76
2022/08/18 03:59:40;;;;;;;16.13;14.63;;;17.70;99.90;;;;;;5074086;28;20235;-76
2022/08/18 04:02:07;;;;;;;16.05;14.45;;;17.60;99.90;;;;;;5074174;28;20201;-76
2022/08/18 04:04:34;;;;;;;14.98;13.57;;;17.70;99.90;;;;;;5073720;28;20537;-76
2022/08/18 04:07:04;;;;;;;15.43;13.82;;;17.70;99.90;;;;;;5073701;28;20197;-76
2022/08/18 04:09:32;;;;;;;15.10;13.60;;;17.70;99.90;;;;;;5073674;28;20299;-76
2022/08/18 04:12:09;;;;;;;14.90;13.40;;;17.80;99.90;;;;;;5073814;28;20204;-76
2022/08/18 04:14:37;;;;;;;15.60;14.23;;;17.80;99.90;;;;;;5073674;28;20595;-76
2022/08/18 04:17:05;;;;;;;14.77;13.48;;;17.90;99.90;;;;;;5073693;28;20193;-76
2022/08/18 04:19:33;;;;;;;15.25;13.73;;;17.90;99.90;;;;;;5073541;28;20279;-77
2022/08/18 04:22:02;;;;;;;14.98;13.50;;;17.90;99.90;;;;;;5073398;28;20680;-76
2022/08/18 04:24:30;;;;;;;15.43;13.80;;;17.90;99.90;;;;;;5073499;28;20201;-77
2022/08/18 04:26:59;;;;;;;15.20;13.77;;;17.90;99.90;;;;;;5073589;28;20200;-76
2022/08/18 04:29:26;;;;;;;15.23;13.30;;;17.90;99.90;;;;;;5073518;28;20293;-76
2022/08/18 04:31:54;;;;;;;14.63;13.32;;;18.00;99.90;;;;;;5073494;28;20247;-76
2022/08/18 04:34:22;;;;;;;14.65;13.25;;;17.90;99.90;;;;;;5073305;28;20258;-76
2022/08/18 04:36:52;;;;;;;14.18;12.93;;;17.90;99.90;;;;;;5073322;28;20560;-77
2022/08/18 04:39:19;;;;;;;15.05;13.65;;;17.90;99.90;;;;;;5073256;28;20251;-76
2022/08/18 04:41:47;;;;;;;14.25;12.98;;;17.90;99.90;;;;;;5073290;28;20193;-76
2022/08/18 04:44:16;;;;;;;13.98;12.65;;;17.90;99.90;;;;;;5073017;28;20236;-76
2022/08/18 04:46:47;;;;;;;13.85;12.52;;;17.90;99.90;;;;;;5073124;28;20232;-76
2022/08/18 04:49:17;;;;;;;15.23;13.07;;;17.90;99.90;;;;;;5073094;28;20288;-76
2022/08/18 04:53:43;;;;;;;14.15;12.63;;;17.90;99.90;;;;;;5073449;28;20192;-76
2022/08/18 04:54:35;;;;;;;13.90;12.60;;;18.00;99.90;;;;;;5073051;28;20219;-77
2022/08/18 04:57:07;;;;;;;16.52;12.88;;;18.00;99.90;;;;;;5072960;28;20201;-76
2022/08/18 04:59:35;;;;;;;13.65;12.30;;;18.00;99.90;;;;;;5072853;28;20228;-77
2022/08/18 05:02:04;;;;;;;14.18;12.98;;;18.20;99.90;;;;;;5072797;28;20201;-76
2022/08/18 05:04:33;;;;;;;14.70;11.95;;;18.20;99.90;;;;;;5072738;28;20211;-77
2022/08/18 05:07:00;;;;;;;13.98;12.68;;;18.30;99.90;;;;;;5072949;28;20295;-76
2022/08/18 05:09:27;;;;;;;13.50;12.15;;;18.30;99.90;;;;;;5072900;28;20200;-77
2022/08/18 05:11:54;;;;;;;13.45;12.13;;;18.30;99.90;;;;;;5072768;28;20250;-76
2022/08/18 05:14:21;;;;;;;13.55;12.15;;;18.30;99.90;;;;;;5072748;28;20197;-77
2022/08/18 05:16:48;;;;;;;13.82;12.45;;;18.30;99.90;;;;;;5072945;28;20207;-76
2022/08/18 05:19:15;;;;;;;13.85;12.65;;;18.30;99.90;;;;;;5072710;28;20224;-77
2022/08/18 05:21:43;;;;;;;14.13;12.93;;;18.30;99.90;;;;;;5072827;28;20197;-77
2022/08/18 05:24:10;;;;;;;13.57;11.27;;;18.50;99.90;;;;;;5072599;28;20205;-77
2022/08/18 05:26:39;;;;;;;13.25;11.30;;;18.60;99.90;;;;;;5076346;28;20211;-77
2022/08/18 05:29:06;;;;;;;12.65;11.43;;;18.70;99.90;;;;;;5077007;28;20269;-77
2022/08/18 05:31:33;;;;;;;11.55;10.45;;;18.80;99.90;;;;;;5076943;28;20254;-77
2022/08/18 05:34:01;;;;;;;12.20;11.07;;;18.80;99.90;;;;;;5076707;28;20212;-77
2022/08/18 05:36:52;;;;;;;12.10;11.00;;;18.90;99.90;;;;;;5076685;28;20203;-76
2022/08/18 05:39:23;;;;;;;11.82;10.73;;;18.90;99.90;;;;;;5076412;28;20278;-77
2022/08/18 05:41:55;;;;;;;11.60;10.60;;;19.00;99.90;;;;;;5076491;28;20258;-77
2022/08/18 05:44:26;;;;;;;11.38;10.27;;;19.00;99.90;;;;;;5076590;28;20252;-76
2022/08/18 05:46:55;;;;;;;12.40;10.38;;;19.10;99.90;;;;;;5076720;28;20243;-76
2022/08/18 05:49:24;;;;;;;11.43;10.32;;;19.20;99.90;;;;;;5076412;28;20193;-77
2022/08/18 05:51:56;;;;;;;11.93;10.75;;;19.20;99.90;;;;;;5076223;28;20208;-77
2022/08/18 05:57:15;;;;;;;11.35;10.25;;;19.40;99.90;;;;;;5076302;28;20199;-77
2022/08/18 05:59:43;;;;;;;11.40;10.40;;;19.50;99.90;;;;;;5076071;28;20225;-78
2022/08/18 06:02:15;;;;;;;11.18;10.05;;;19.50;99.90;;;;;;5076107;28;20226;-77
2022/08/18 06:04:47;;;;;;;11.02;9.93;;;19.60;99.90;;;;;;5076353;28;20534;-77
2022/08/18 06:07:18;;;;;;;10.82;9.73;;;19.70;99.90;;;;;;5076192;28;20201;-77
2022/08/18 06:09:50;;;;;;;11.85;10.15;;;19.70;99.90;;;;;;5076180;28;20196;-77
2022/08/18 06:12:25;;;;;;;11.13;9.65;;;19.80;99.90;;;;;;5076225;28;20280;-78
2022/08/18 06:15:02;;;;;;;10.95;9.93;;;19.80;99.90;;;;;;5076336;28;20204;-77
2022/08/18 06:18:01;;;;;;;10.23;8.95;;;19.90;99.90;;;;;;5076286;28;20197;-77
2022/08/18 06:20:33;;;;;;;10.48;9.35;;;20.10;99.90;;;;;;5072920;28;20247;-77
2022/08/18 06:23:10;;;;;;;9.52;8.73;;;20.20;99.90;;;;;;5075756;28;20266;-77
2022/08/18 06:25:57;;;;;;;9.38;8.48;;;20.40;99.90;;;;;;5075897;28;20598;-77
2022/08/18 06:28:25;;;;;;;9.60;8.48;;;20.60;99.90;;;;;;5075776;28;20250;-77
2022/08/18 06:30:56;;;;;;;11.07;9.30;;;20.70;99.90;;;;;;5075686;28;20197;-76
2022/08/18 06:33:37;;;;;;;9.52;7.97;;;20.70;99.90;;;;;;5075425;28;20628;-76
2022/08/18 06:36:12;;;;;;;8.55;7.85;;;20.80;99.90;;;;;;5075733;28;20200;-77
2022/08/18 06:38:52;;;;;;;10.32;8.13;;;21.00;99.90;;;;;;5075508;28;20548;-77
2022/08/18 06:41:21;;;;;;;8.68;7.88;;;21.40;99.90;;;;;;5075518;28;20201;-77
2022/08/18 06:43:57;;;;;;;8.50;7.70;;;21.50;99.90;;;;;;5075074;28;20228;-77
2022/08/18 06:46:33;;;;;;;8.05;7.35;;;21.50;99.90;;;;;;5075610;28;20229;-77
2022/08/18 06:49:04;;;;;;;8.32;7.50;;;21.70;99.90;;;;;;5075387;28;20201;-77
2022/08/18 06:51:31;;;;;;;8.40;7.60;;;21.60;99.90;;;;;;5075218;28;20668;-77
2022/08/18 06:54:02;;;;;;;8.43;7.63;;;21.70;99.90;;;;;;5075209;28;20197;-77
2022/08/18 06:56:36;;;;;;;8.77;7.97;;;21.90;99.90;;;;;;5074937;28;20197;-77
2022/08/18 06:59:21;;;;;;;9.77;8.00;;;21.90;99.90;;;;;;5075230;28;20290;-77
2022/08/18 07:01:51;;;;;;;8.55;7.82;;;22.00;99.90;;;;;;5075254;28;20227;-77
2022/08/18 07:04:38;;;;;;;8.38;7.68;;;22.20;99.90;;;;;;5075072;28;20243;-77
2022/08/18 07:07:17;;;;;;;9.55;7.68;;;22.20;99.90;;;;;;5074889;28;20201;-77
2022/08/18 07:09:45;;;;;;;8.85;8.02;;;21.90;99.90;;;;;;5075059;28;20200;-77
2022/08/18 07:12:20;;;;;;;9.10;8.25;;;21.90;99.90;;;;;;5074770;28;20710;-77
2022/08/18 07:14:50;;;;;;;8.50;7.68;;;22.00;99.90;;;;;;5074784;28;20245;-77
2022/08/18 07:17:23;;;;;;;9.68;8.68;;;22.30;99.90;;;;;;5074507;28;20201;-77
2022/08/18 07:20:03;;;;;;;10.55;8.70;;;22.50;99.90;;;;;;5074873;28;20232;-77
2022/08/18 07:22:30;;;;;;;9.45;8.38;;;22.40;99.90;;;;;;5074840;28;20196;-77
2022/08/18 07:25:03;;;;;;;8.82;8.02;;;22.30;99.90;;;;;;5074550;28;20599;-77
2022/08/18 07:27:48;;;;;;;9.43;8.55;;;22.60;99.90;;;;;;5074379;28;20196;-77
2022/08/18 07:30:28;;;;;;;9.27;8.52;;;22.60;99.90;;;;;;5074572;28;20551;-78
2022/08/18 07:33:00;;;;;;;9.27;8.48;;;22.80;99.90;;;;;;5074613;28;20197;-76
2022/08/18 07:35:32;;;;;;;9.15;8.18;;;22.90;99.90;;;;;;5074541;28;20262;-76
2022/08/18 07:38:04;;;;;;;8.27;7.60;;;22.90;99.90;;;;;;5074277;28;20506;-76
2022/08/18 07:40:38;;;;;;;9.43;8.40;;;23.20;99.90;;;;;;5074274;28;20592;-78
2022/08/18 07:43:14;;;;;;;13.43;8.23;;;23.20;99.90;;;;;;5074247;28;20236;-78
2022/08/18 07:45:43;;;;;;;8.77;7.97;;;23.20;99.90;;;;;;5074380;28;20200;-77
2022/08/18 07:48:13;;;;;;;9.05;8.18;;;23.30;99.90;;;;;;5073700;28;20197;-77
2022/08/18 07:50:48;;;;;;;10.02;8.93;;;23.60;99.90;;;;;;5074045;28;20274;-78
2022/08/18 07:53:28;;;;;;;11.95;9.10;;;23.20;99.90;;;;;;5074214;28;20250;-77
2022/08/18 07:56:04;;;;;;;9.68;8.70;;;23.30;99.90;;;;;;5074047;28;20209;-77
2022/08/18 07:58:36;;;;;;;8.38;7.57;;;23.40;99.90;;;;;;5074056;28;20197;-77
2022/08/18 08:01:08;;;;;;;9.35;8.55;;;23.80;99.90;;;;;;5074085;28;20220;-77
2022/08/18 08:03:46;;;;;;;9.38;8.57;;;23.50;99.90;;;;;;5073965;28;20258;-77
2022/08/18 08:06:18;;;;;;;10.80;9.63;;;23.50;99.90;;;;;;5073704;28;20656;-77
2022/08/18 08:08:54;;;;;;;9.25;8.35;;;23.30;99.90;;;;;;5073834;28;20200;-77
2022/08/18 08:11:36;;;;;;;9.88;8.98;;;23.60;99.90;;;;;;5073697;28;20201;-76
2022/08/18 08:14:16;;;;;;;9.00;8.20;;;23.30;99.90;;;;;;5073614;28;20674;-77
2022/08/18 08:16:48;;;;;;;8.98;8.10;;;23.60;99.90;;;;;;5073503;28;20193;-77
2022/08/18 08:19:34;;;;;;;13.07;8.70;;;23.80;99.90;;;;;;5073518;28;20200;-78
2022/08/18 08:22:05;;;;;;;8.77;8.07;;;24.10;99.90;;;;;;5073810;28;20196;-79
2022/08/18 08:24:41;;;;;;;12.27;8.95;;;24.20;99.90;;;;;;5073662;28;20201;-78
2022/08/18 08:27:16;;;;;;;9.35;8.32;;;24.30;99.90;;;;;;5073765;28;20205;-78
2022/08/18 08:29:55;;;;;;;8.30;7.60;;;24.30;99.90;;;;;;5073472;28;20196;-78
2022/08/18 08:32:31;;;;;;;9.77;8.70;;;24.60;99.90;;;;;;5073446;28;20204;-76
2022/08/18 08:35:01;;;;;;;8.60;7.88;;;25.00;99.90;;;;;;5073429;28;20200;-77
2022/08/18 08:37:35;;;;;;;9.10;8.40;;;25.20;99.90;;;;;;5073265;28;20201;-76
2022/08/18 08:40:08;;;;;;;8.20;7.50;;;25.30;99.90;;;;;;5072953;28;20300;-77
2022/08/18 08:42:41;;;;;;;10.13;7.85;;;25.50;99.90;;;;;;5072797;28;20722;-77
2022/08/18 08:45:13;;;;;;;8.40;7.57;;;25.80;99.90;;;;;;5073181;28;20207;-77
2022/08/18 08:47:48;;;;;;;8.50;7.70;;;25.70;99.90;;;;;;5073106;28;20610;-78
2022/08/18 08:50:19;;;;;;;8.40;7.68;;;25.40;99.90;;;;;;5073082;28;20197;-78
2022/08/18 08:52:50;;;;;;;8.10;7.28;;;25.40;99.90;;;;;;5072865;28;20197;-78
2022/08/18 08:55:24;;;;;;;7.82;6.80;;;25.70;99.90;;;;;;5073112;28;20250;-78
2022/08/18 08:57:55;;;;;;;7.95;7.25;;;25.90;99.90;;;;;;5072904;28;20203;-77
2022/08/18 09:00:22;;;;;;;8.27;7.57;;;25.60;99.90;;;;;;5071850;28;20631;-78
2022/08/18 09:03:04;;;;;;;7.85;7.15;;;26.00;99.90;;;;;;5072791;28;20243;-78
2022/08/18 09:05:38;;;;;;;8.13;7.43;;;26.10;99.90;;;;;;5072656;28;20196;-77
2022/08/18 09:08:32;;;;;;;7.75;6.80;;;26.70;99.90;;;;;;5072610;28;20551;-78
2022/08/18 09:11:19;;;;;;;7.95;6.68;;;26.80;99.90;;;;;;5072837;28;20250;-78
2022/08/18 09:14:20;;;;;;;7.47;6.78;;;26.40;99.90;;;;;;5072820;28;20247;-78
2022/08/18 09:17:02;;;;;;;7.47;6.85;;;26.90;99.90;;;;;;5055437;28;20202;-78
2022/08/18 09:19:57;;;;;;;8.65;6.65;;;27.20;99.90;;;;;;5072600;28;20279;-78
2022/08/18 09:22:35;;;;;;;7.07;6.50;;;27.60;99.90;;;;;;5072830;28;20205;-78
2022/08/18 09:25:01;;;;;;;7.43;6.72;;;28.20;99.90;;;;;;5072487;28;20730;-78
2022/08/18 09:27:40;;;;;;;7.18;6.57;;;28.50;99.90;;;;;;5072556;28;20270;-78
2022/08/18 09:30:28;;;;;;;7.80;6.65;;;28.90;99.90;;;;;;5072618;28;20630;-78
2022/08/18 09:33:12;;;;;;;8.50;6.75;;;29.00;99.90;;;;;;5072066;28;20205;-78
2022/08/18 09:35:59;;;;;;;7.90;6.25;;;29.20;99.90;;;;;;5072352;28;20201;-77
2022/08/18 09:41:33;;;;;;;7.95;7.15;;;29.20;99.90;;;;;;5072444;28;20224;-77
2022/08/18 09:44:13;;;;;;;6.85;6.25;;;29.10;99.30;;;;;;5072259;28;20228;-78
2022/08/18 09:46:59;;;;;;;7.30;6.68;;;29.90;99.20;;;;;;5072457;28;20296;-77
2022/08/18 09:49:46;;;;;;;7.22;6.53;;;30.70;96.40;;;;;;5072289;28;20292;-76
2022/08/18 09:52:53;;;;;;;7.63;6.93;;;30.30;95.40;;;;;;5072466;28;20197;-79
2022/08/18 09:55:53;;;;;;;9.77;6.28;;;28.60;96.30;;;;;;5072309;28;20201;-78
2022/08/18 09:58:41;;;;;;;7.53;6.82;;;28.30;97.50;;;;;;5072428;28;20193;-79
2022/08/18 10:01:35;;;;;;;8.70;6.95;;;28.10;98.50;;;;;;5072389;28;20271;-79
2022/08/18 10:04:25;;;;;;;7.65;6.97;;;28.10;98.50;;;;;;5073331;28;20280;-78
2022/08/18 10:06:52;;;;;;;7.38;6.57;;;28.60;97.70;;;;;;5072698;28;20284;-77
2022/08/18 10:09:35;;;;;;;7.30;6.70;;;29.50;97.10;;;;;;5072685;28;20201;-78
2022/08/18 10:12:25;;;;;;;7.00;6.32;;;29.60;96.10;;;;;;5074895;28;20200;-77
2022/08/18 10:15:15;;;;;;;7.35;6.60;;;29.70;95.30;;;;;;5076317;28;20200;-78
2022/08/18 10:17:59;;;;;;;7.53;6.70;;;28.70;95.80;;;;;;5076167;28;20230;-78
2022/08/18 10:20:39;;;;;;;7.72;6.70;;;28.30;96.40;;;;;;5075759;28;20294;-78
2022/08/18 10:23:07;;;;;;;6.75;6.15;;;28.80;96.10;;;;;;5075983;28;20200;-78
2022/08/18 10:25:38;;;;;;;7.25;6.32;;;29.10;95.50;;;;;;5075712;28;20193;-78
2022/08/18 10:28:08;;;;;;;7.57;6.88;;;27.80;96.20;;;;;;5075650;28;20601;-78
2022/08/18 10:31:08;;;;;;;8.75;7.55;;;27.40;97.20;;;;;;5075690;28;20207;-78
2022/08/18 10:34:08;;;;;;;7.93;6.97;;;27.40;97.10;;;;;;5075837;28;20314;-78
2022/08/18 10:36:47;;;;;;;7.80;6.97;;;28.10;97.10;;;;;;5075605;28;20201;-78
2022/08/18 10:39:17;;;;;;;7.75;7.05;;;28.70;95.70;;;;;;5075399;28;20226;-78
2022/08/18 10:42:00;;;;;;;7.45;6.82;;;28.50;95.70;;;;;;5075667;28;20232;-79
2022/08/18 10:44:29;;;;;;;9.15;6.80;;;28.90;95.00;;;;;;5075931;28;20279;-79
2022/08/18 10:46:59;;;;;;;9.98;7.18;;;28.90;94.70;;;;;;5076009;28;20201;-79
2022/08/18 10:49:30;;;;;;;8.85;6.00;;;28.80;93.30;;;;;;5075810;28;20228;-79
2022/08/18 10:52:28;;;;;;;9.15;6.38;;;29.60;93.20;;;;;;5075785;28;20212;-79
2022/08/18 10:55:07;;;;;;;7.53;6.47;;;29.70;91.60;;;;;;5075746;28;20552;-78
2022/08/18 10:57:53;;;;;;;7.10;6.40;;;29.40;92.20;;;;;;5075760;28;20197;-78
2022/08/18 11:00:21;;;;;;;6.75;6.25;;;30.30;91.10;;;;;;5074930;28;20216;-78
2022/08/18 11:03:05;;;;;;;6.72;6.13;;;31.40;89.70;;;;;;5075214;28;20200;-77
2022/08/18 11:05:33;;;;;;;6.15;5.55;;;30.90;86.50;;;;;;5075163;28;20231;-77
2022/08/18 11:08:04;;;;;;;7.63;5.90;;;30.50;87.90;;;;;;5074931;28;20718;-78
2022/08/18 11:10:42;;;;;;;7.53;5.63;;;31.40;86.20;;;;;;5074885;28;20205;-77
2022/08/18 11:13:16;;;;;;;9.43;6.57;;;32.10;81.90;;;;;;5075184;28;20564;-78
2022/08/18 11:15:54;;;;;;;6.43;5.80;;;32.00;81.80;;;;;;5074995;28;20201;-78
2022/08/18 11:18:32;;;;;;;6.35;5.85;;;33.10;79.20;;;;;;5074864;28;20231;-79
2022/08/18 11:21:38;;;;;;;5.45;5.00;;;33.90;72.40;;;;;;5074587;28;20220;-78
2022/08/18 11:24:11;;;;;;;6.97;4.93;;;34.60;68.10;;;;;;5067248;28;20207;-78
2022/08/18 11:26:42;;;;;;;5.68;5.18;;;36.00;62.50;;;;;;5074779;28;20200;-78
2022/08/18 11:29:20;;;;;;;5.68;5.10;;;37.20;56.00;;;;;;5074514;28;20205;-77
2022/08/18 11:31:48;;;;;;;4.93;4.53;;;37.50;50.50;;;;;;5074706;28;20200;-77
2022/08/18 11:34:17;;;;;;;6.22;5.18;;;36.10;48.80;;;;;;5074816;28;20226;-78
2022/08/18 11:36:43;;;;;;;5.32;4.82;;;35.20;50.40;;;;;;5074457;28;20192;-78
2022/08/18 11:39:20;;;;;;;6.30;5.38;;;34.60;51.10;;;;;;5074419;28;20254;-78
2022/08/18 11:41:48;;;;;;;5.35;4.95;;;34.70;50.10;;;;;;5074156;28;20220;-77
2022/08/18 11:44:19;;;;;;;5.95;5.43;;;34.10;50.50;;;;;;5073938;28;20271;-77
2022/08/18 11:46:46;;;;;;;5.40;4.90;;;34.20;50.20;;;;;;5074473;28;20196;-78
2022/08/18 11:49:17;;;;;;;6.47;5.10;;;34.40;49.60;;;;;;5074715;28;20197;-79
2022/08/18 11:51:55;;;;;;;5.90;5.20;;;34.00;49.50;;;;;;5074390;28;20197;-78
2022/08/18 11:54:35;;;;;;;5.90;5.32;;;33.60;50.30;;;;;;5074023;28;20204;-79
2022/08/18 11:57:30;;;;;;;5.65;5.15;;;34.40;49.50;;;;;;5074287;28;20200;-79
2022/08/18 11:59:57;;;;;;;5.97;4.93;;;36.80;46.70;;;;;;5074199;28;20196;-78
2022/08/18 12:02:25;;;;;;;8.52;5.28;;;37.40;44.70;;;;;;5073780;28;20226;-78
2022/08/18 12:04:56;;;;;;;5.70;5.20;;;38.40;43.10;;;;;;5074037;28;20206;-77
2022/08/18 12:07:28;;;;;;;5.65;5.10;;;39.00;41.20;;;;;;5073779;28;20550;-77
2022/08/18 12:10:16;;;;;;;5.30;4.90;;;39.50;39.90;;;;;;5073858;28;20219;-77
2022/08/18 12:12:46;;;;;;;6.40;4.57;;;40.40;38.10;;;;;;5073693;28;20197;-78
2022/08/18 12:15:26;;;;;;;6.55;4.72;;;38.70;37.60;;;;;;5074182;28;20196;-79
2022/08/18 12:17:53;;;;;;;5.20;4.70;;;39.50;37.30;;;;;;5073753;28;20204;-78
2022/08/18 12:20:20;;;;;;;5.47;4.97;;;39.40;36.10;;;;;;5073586;28;20196;-78
2022/08/18 12:22:48;;;;;;;5.07;4.78;;;38.50;36.10;;;;;;5073375;28;20212;-78
2022/08/18 12:25:18;;;;;;;6.00;5.20;;;38.00;36.40;;;;;;5073489;28;20203;-78
2022/08/18 12:27:45;;;;;;;4.90;4.50;;;38.40;36.10;;;;;;5073625;28;20637;-78
2022/08/18 12:30:13;;;;;;;6.63;4.93;;;38.40;35.50;;;;;;5073327;28;20713;-78
2022/08/18 12:32:39;;;;;;;5.65;5.22;;;37.80;35.70;;;;;;5073485;28;20242;-77
2022/08/18 12:35:10;;;;;;;5.55;5.15;;;35.90;36.10;;;;;;5073401;28;20211;-77
2022/08/18 12:37:38;;;;;;;5.38;4.88;;;34.30;38.70;;;;;;5074006;28;20235;-78
2022/08/18 12:40:06;;;;;;;5.32;4.85;;;33.80;39.50;;;;;;5073036;28;20541;-77
2022/08/18 12:42:34;;;;;;;6.65;5.53;;;34.00;39.70;;;;;;5073013;28;20236;-78
2022/08/18 12:45:01;;;;;;;7.22;5.28;;;34.50;39.20;;;;;;5073304;28;20283;-79
2022/08/18 12:47:28;;;;;;;6.80;5.63;;;35.70;38.60;;;;;;5073182;28;20196;-78
2022/08/18 12:49:54;;;;;;;6.18;5.22;;;37.20;37.80;;;;;;5073120;28;20287;-77
2022/08/18 12:52:22;;;;;;;6.97;5.10;;;36.10;37.90;;;;;;5073056;28;20196;-78
2022/08/18 12:54:48;;;;;;;5.85;4.70;;;36.60;38.20;;;;;;5073203;28;20196;-78
2022/08/18 12:57:21;;;;;;;6.10;5.25;;;36.60;37.60;;;;;;5073396;28;20201;-78
2022/08/18 12:59:49;;;;;;;6.75;5.63;;;37.00;37.90;;;;;;5073117;28;20201;-77
2022/08/18 13:02:16;;;;;;;5.47;4.95;;;36.60;37.40;;;;;;5072885;28;20224;-78
2022/08/18 13:04:43;;;;;;;7.32;5.40;;;36.40;37.50;;;;;;5072975;28;20204;-77
2022/08/18 13:07:12;;;;;;;6.95;5.55;;;36.60;37.30;;;;;;5072787;28;20666;-78
2022/08/18 13:09:39;;;;;;;5.43;4.95;;;36.70;37.20;;;;;;5072919;28;20651;-78
2022/08/18 13:12:06;;;;;;;5.10;4.70;;;38.40;35.60;;;;;;5073021;28;20204;-79
2022/08/18 13:14:33;;;;;;;5.65;5.13;;;38.50;34.30;;;;;;5072942;28;20277;-79
2022/08/18 13:17:02;;;;;;;5.50;5.00;;;39.00;33.40;;;;;;5072778;28;20201;-79